Time;durP1;ratioP1;P1;durP2;ratioP2;P2;SDS_P1;SDS_P2;PMS_P1;PMS_P2;Temp;Humidity;BMP_temperature;BMP_pressure;BME280_temperature;BME280_humidity;BME280_pressure;Samples;Min_cycle;Max_cycle;Signal;HPM_P1;HPM_P2
2022/05/11 00:01:53;;;;;;;0.10;0.10;;;17.50;99.90;17.40;101198.00;;;;5094779;28;20272;-74
2022/05/11 00:04:19;;;;;;;0.10;0.10;;;17.40;99.90;17.50;101213.00;;;;5095802;28;20322;-74
2022/05/11 00:06:45;;;;;;;0.10;0.10;;;17.50;99.90;17.10;101204.00;;;;5077605;28;20238;-74
2022/05/11 00:09:13;;;;;;;0.10;0.10;;;17.40;99.90;16.90;101184.00;;;;5095444;28;20647;-74
2022/05/11 00:11:46;;;;;;;0.10;0.10;;;17.30;99.90;17.10;101194.00;;;;5094814;28;20224;-74
2022/05/11 00:14:12;;;;;;;0.10;0.10;;;17.30;99.90;17.80;101217.00;;;;5077095;28;20192;-74
2022/05/11 00:16:39;;;;;;;0.10;0.10;;;17.50;99.90;17.70;101201.00;;;;5092198;28;20182;-74
2022/05/11 00:19:07;;;;;;;0.10;0.10;;;17.60;99.90;17.80;101227.00;;;;5093858;28;20177;-73
2022/05/11 00:21:34;;;;;;;0.20;0.20;;;17.70;99.90;17.70;101210.00;;;;5095668;28;20659;-73
2022/05/11 00:24:00;;;;;;;0.10;0.10;;;17.60;99.90;18.30;101224.00;;;;5076322;28;20216;-74
2022/05/11 00:26:26;;;;;;;0.10;0.10;;;17.80;99.90;17.90;101216.00;;;;5092774;28;20181;-74
2022/05/11 00:28:52;;;;;;;0.10;0.10;;;17.80;99.90;17.80;101215.00;;;;5093872;28;20172;-74
2022/05/11 00:31:17;;;;;;;0.20;0.20;;;17.80;99.90;18.00;101221.00;;;;5093330;28;20272;-74
2022/05/11 00:33:46;;;;;;;0.13;0.13;;;17.80;99.90;18.20;101183.00;;;;5093635;28;20523;-73
2022/05/11 00:36:14;;;;;;;0.10;0.10;;;17.80;99.90;17.90;101216.00;;;;5077053;28;20216;-73
2022/05/11 00:38:40;;;;;;;0.10;0.10;;;17.80;99.90;17.70;101214.00;;;;5095489;28;20177;-73
2022/05/11 00:41:09;;;;;;;0.20;0.20;;;17.70;99.90;18.20;101165.00;;;;5093426;28;20569;-74
2022/05/11 00:43:39;;;;;;;0.10;0.10;;;17.90;99.90;17.80;101171.00;;;;5097593;28;20646;-73
2022/05/11 00:46:24;;;;;;;0.20;0.20;;;17.90;99.90;17.40;101191.00;;;;5096900;28;20240;-72
2022/05/11 00:51:45;;;;;;;0.10;0.10;;;17.40;99.90;17.70;101155.00;;;;5112379;28;20229;-73
2022/05/11 00:54:14;;;;;;;0.10;0.10;;;17.50;99.90;17.00;101181.00;;;;5095023;28;20176;-73
2022/05/11 00:56:49;;;;;;;0.10;0.10;;;17.40;99.90;17.30;101177.00;;;;5095502;28;20244;-74
2022/05/11 00:59:24;;;;;;;0.20;0.20;;;17.40;99.90;17.20;101186.00;;;;5096027;28;20175;-73
2022/05/11 01:01:52;;;;;;;0.10;0.10;;;17.40;99.90;17.50;101180.00;;;;5113456;28;20197;-73
2022/05/11 01:04:22;;;;;;;0.10;0.10;;;17.40;99.90;17.40;101175.00;;;;5096175;28;20194;-73
2022/05/11 01:06:48;;;;;;;0.10;0.10;;;17.50;99.90;17.50;101175.00;;;;5096708;28;20194;-73
2022/05/11 01:09:14;;;;;;;0.10;0.10;;;17.50;99.90;17.50;101179.00;;;;5113738;28;20225;-73
2022/05/11 01:11:50;;;;;;;0.10;0.10;;;17.40;99.90;17.50;101166.00;;;;5113575;28;20235;-73
2022/05/11 01:14:24;;;;;;;0.10;0.10;;;17.40;99.90;18.00;101194.00;;;;5096098;28;20178;-73
2022/05/11 01:16:50;;;;;;;0.10;0.10;;;17.60;99.90;17.90;101190.00;;;;5096086;28;20679;-72
2022/05/11 01:19:25;;;;;;;0.10;0.10;;;17.60;99.90;17.80;101185.00;;;;5113658;28;20639;-73
2022/05/11 01:22:02;;;;;;;0.20;0.20;;;17.60;99.90;18.00;101190.00;;;;5113285;28;20206;-74
2022/05/11 01:24:41;;;;;;;0.17;0.17;;;17.70;99.90;18.20;101151.00;;;;5097053;28;20623;-73
2022/05/11 01:27:44;;;;;;;0.10;0.10;;;17.80;99.90;18.20;101191.00;;;;5114778;28;20240;-73
2022/05/11 01:30:19;;;;;;;0.10;0.10;;;17.80;99.90;17.60;101182.00;;;;5095853;28;20184;-73
2022/05/11 01:32:53;;;;;;;0.10;0.10;;;17.60;99.90;17.40;101170.00;;;;5095566;28;20750;-73
2022/05/11 01:35:46;;;;;;;0.47;0.47;;;17.40;99.90;17.10;101164.00;;;;5096268;28;20681;-73
2022/05/11 01:38:20;;;;;;;0.20;0.20;;;17.30;99.90;17.00;101162.00;;;;5114217;28;20176;-73
2022/05/11 01:40:46;;;;;;;0.10;0.10;;;17.10;99.90;17.80;101160.00;;;;5101621;28;20638;-73
2022/05/11 01:43:27;;;;;;;0.10;0.10;;;17.40;99.90;17.60;101165.00;;;;5075902;28;20221;-72
2022/05/11 01:45:55;;;;;;;0.10;0.10;;;17.40;99.90;17.00;101151.00;;;;5075383;28;20188;-72
2022/05/11 01:48:22;;;;;;;0.10;0.10;;;17.30;99.90;17.20;101148.00;;;;5074794;28;20190;-72
2022/05/11 01:50:48;;;;;;;0.10;0.10;;;17.20;99.90;17.20;101147.00;;;;5091692;28;20186;-72
2022/05/11 01:53:15;;;;;;;0.10;0.10;;;17.30;99.90;16.80;101143.00;;;;5074531;28;20534;-72
2022/05/11 01:55:43;;;;;;;0.17;0.17;;;17.10;99.90;16.50;101107.00;;;;5092844;28;20251;-72
2022/05/11 01:58:11;;;;;;;0.20;0.20;;;17.00;99.90;16.60;101123.00;;;;5091875;28;20181;-72
2022/05/11 02:00:42;;;;;;;0.10;0.10;;;16.90;99.90;17.10;101137.00;;;;5073964;28;20180;-72
2022/05/11 02:03:08;;;;;;;0.10;0.10;;;17.00;99.90;17.30;101141.00;;;;5074979;28;20189;-72
2022/05/11 02:08:28;;;;;;;0.20;0.20;;;17.30;99.90;16.90;101136.00;;;;5091897;28;20192;-72
2022/05/11 02:10:57;;;;;;;0.20;0.20;;;17.20;99.90;17.20;101135.00;;;;5074823;28;20182;-72
2022/05/11 02:13:27;;;;;;;0.10;0.10;;;17.20;99.90;17.30;101118.00;;;;5074370;28;20216;-72
2022/05/11 02:15:53;;;;;;;0.20;0.20;;;17.30;99.90;17.40;101088.00;;;;5092269;28;20165;-72
2022/05/11 02:18:22;;;;;;;0.10;0.10;;;17.30;99.90;17.60;101137.00;;;;5090823;28;20510;-72
2022/05/11 02:20:48;;;;;;;0.10;0.10;;;17.40;99.90;17.80;101147.00;;;;5075628;28;20217;-72
2022/05/11 02:23:20;;;;;;;0.93;0.93;;;17.60;99.90;17.10;101132.00;;;;5091108;28;20201;-72
2022/05/11 02:25:48;;;;;;;0.10;0.10;;;17.40;99.90;17.20;101122.00;;;;5073984;28;20211;-72
2022/05/11 02:28:15;;;;;;;0.20;0.20;;;17.20;99.90;17.20;101123.00;;;;5091695;28;20187;-73
2022/05/11 02:30:46;;;;;;;0.10;0.10;;;17.30;99.90;17.60;101132.00;;;;5073082;28;20387;-73
2022/05/11 02:33:14;;;;;;;0.10;0.10;;;17.40;99.90;17.80;101139.00;;;;5090050;28;20224;-72
2022/05/11 02:35:42;;;;;;;0.20;0.20;;;17.50;99.90;18.10;101104.00;;;;5075496;28;20218;-72
2022/05/11 02:38:14;;;;;;;0.20;0.20;;;17.60;99.90;16.60;101108.00;;;;5091948;28;20183;-72
2022/05/11 02:40:41;;;;;;;0.10;0.10;;;17.10;99.90;16.70;101105.00;;;;5073728;28;20181;-73
2022/05/11 02:43:10;;;;;;;0.80;0.80;;;16.80;99.90;16.50;101110.00;;;;5091752;28;20235;-72
2022/05/11 02:45:39;;;;;;;0.20;0.20;;;16.80;99.90;16.50;101101.00;;;;5091722;28;20203;-73
2022/05/11 02:48:07;;;;;;;0.30;0.30;;;16.80;99.90;16.20;101108.00;;;;5090585;28;20173;-72
2022/05/11 02:50:44;;;;;;;0.20;0.20;;;16.70;99.90;16.30;101113.00;;;;5091955;28;20185;-72
2022/05/11 02:53:11;;;;;;;0.20;0.20;;;16.60;99.90;16.30;101093.00;;;;5074591;28;20552;-72
2022/05/11 02:55:49;;;;;;;0.27;0.27;;;16.60;99.90;16.10;101095.00;;;;5074918;28;20248;-72
2022/05/11 02:58:18;;;;;;;0.10;0.10;;;16.50;99.90;16.10;101089.00;;;;5090741;28;20327;-72
2022/05/11 03:00:47;;;;;;;0.20;0.20;;;16.50;99.90;16.70;101086.00;;;;5091788;28;20240;-72
2022/05/11 03:03:16;;;;;;;0.10;0.10;;;16.70;99.90;16.60;101088.00;;;;5091801;28;20550;-72
2022/05/11 03:05:43;;;;;;;0.40;0.40;;;16.70;99.90;16.00;101080.00;;;;5074868;28;20187;-73
2022/05/11 03:08:09;;;;;;;0.20;0.20;;;16.50;99.90;15.90;101083.00;;;;5091695;28;20244;-73
2022/05/11 03:10:40;;;;;;;0.10;0.10;;;16.40;99.90;16.40;101071.00;;;;5074393;28;20652;-72
2022/05/11 03:13:07;;;;;;;0.20;0.20;;;16.50;99.90;16.80;101084.00;;;;5090491;28;20272;-72
2022/05/11 03:15:36;;;;;;;0.47;0.47;;;16.70;99.90;16.10;101081.00;;;;5091864;28;20203;-72
2022/05/11 03:18:03;;;;;;;0.50;0.50;;;16.70;99.90;15.90;101063.00;;;;5092529;28;20181;-73
2022/05/11 03:20:32;;;;;;;1.13;1.10;;;16.30;99.90;15.80;101067.00;;;;5078479;28;20658;-73
2022/05/11 03:22:57;;;;;;;0.20;0.20;;;16.30;99.90;16.10;101064.00;;;;5093795;28;20706;-73
2022/05/11 03:25:25;;;;;;;0.20;0.20;;;16.30;99.90;15.60;101074.00;;;;5094835;28;20188;-72
2022/05/11 03:27:53;;;;;;;0.20;0.20;;;16.10;99.90;15.60;101054.00;;;;5095381;28;20210;-72
2022/05/11 03:30:19;;;;;;;0.20;0.20;;;16.00;99.90;15.90;101076.00;;;;5095431;28;20177;-73
2022/05/11 03:35:31;;;;;;;0.20;0.20;;;16.00;99.90;15.20;101062.00;;;;5096479;28;20702;-73
2022/05/11 03:37:57;;;;;;;0.20;0.20;;;15.80;99.90;15.50;101046.00;;;;5078133;28;20201;-73
2022/05/11 03:40:23;;;;;;;0.30;0.30;;;15.90;99.90;16.00;101030.00;;;;5077284;28;20632;-73
2022/05/11 03:42:49;;;;;;;0.20;0.20;;;16.00;99.90;15.80;101062.00;;;;5095229;28;20177;-73
2022/05/11 03:45:18;;;;;;;0.30;0.30;;;16.00;99.90;15.10;101055.00;;;;5094336;28;20173;-73
2022/05/11 03:47:45;;;;;;;0.50;0.50;;;15.80;99.90;15.00;101057.00;;;;5093888;28;20173;-73
2022/05/11 03:50:11;;;;;;;0.63;0.43;;;15.60;99.90;15.40;101052.00;;;;5094015;28;20177;-73
2022/05/11 03:52:38;;;;;;;0.10;0.10;;;15.60;99.90;15.30;101050.00;;;;5077534;28;20205;-73
2022/05/11 03:55:08;;;;;;;0.63;0.60;;;15.60;99.90;15.40;101050.00;;;;5095245;28;20252;-73
2022/05/11 03:57:37;;;;;;;0.20;0.20;;;15.70;99.90;15.10;101014.00;;;;5078194;28;20178;-73
2022/05/11 04:00:07;;;;;;;0.60;0.40;;;15.60;99.90;14.90;101054.00;;;;5094309;28;20173;-73
2022/05/11 04:02:33;;;;;;;0.20;0.20;;;15.50;99.90;15.10;101015.00;;;;5094513;28;20717;-73
2022/05/11 04:04:58;;;;;;;0.10;0.10;;;15.50;99.90;14.90;101008.00;;;;5111291;28;20187;-72
2022/05/11 04:07:24;;;;;;;0.30;0.30;;;15.30;99.90;14.70;101021.00;;;;5114870;28;20191;-73
2022/05/11 04:09:50;;;;;;;0.30;0.30;;;15.30;99.90;14.70;101023.00;;;;5098096;28;20177;-73
2022/05/11 04:12:16;;;;;;;0.40;0.40;;;15.20;99.90;15.00;101065.00;;;;5114708;28;20603;-73
2022/05/11 04:14:43;;;;;;;0.20;0.20;;;15.30;99.90;14.70;101029.00;;;;5116028;28;20180;-73
2022/05/11 04:17:08;;;;;;;0.20;0.20;;;15.20;99.90;15.20;101059.00;;;;5098026;28;20191;-73
2022/05/11 04:19:36;;;;;;;0.37;0.37;;;15.30;99.90;15.40;101060.00;;;;5113780;28;20177;-73
2022/05/11 04:22:05;;;;;;;0.43;0.43;;;15.50;99.90;15.70;101065.00;;;;5114280;28;20210;-73
2022/05/11 04:24:30;;;;;;;0.40;0.40;;;15.60;99.90;14.80;101059.00;;;;5096219;28;20176;-73
2022/05/11 04:26:56;;;;;;;1.03;0.93;;;15.40;99.90;14.90;101055.00;;;;5113964;28;20184;-73
2022/05/11 04:29:22;;;;;;;0.80;0.80;;;15.30;99.90;14.80;101063.00;;;;5114433;28;20204;-73
2022/05/11 04:31:55;;;;;;;0.47;0.47;;;15.20;99.90;14.60;101063.00;;;;5097419;28;20223;-73
2022/05/11 04:34:22;;;;;;;0.20;0.20;;;15.10;99.90;14.70;101054.00;;;;5097388;28;20269;-73
2022/05/11 04:36:50;;;;;;;0.20;0.20;;;15.10;99.90;14.90;101054.00;;;;5096371;28;20193;-73
2022/05/11 04:39:16;;;;;;;0.20;0.20;;;15.30;99.90;14.70;101066.00;;;;5097395;28;20190;-73
2022/05/11 04:41:42;;;;;;;0.30;0.30;;;15.20;99.90;15.40;101069.00;;;;5096624;28;20186;-72
2022/05/11 04:44:09;;;;;;;1.40;1.40;;;15.50;99.90;14.70;101060.00;;;;5113565;28;20538;-72
2022/05/11 04:46:38;;;;;;;1.90;1.03;;;15.30;99.90;14.70;101072.00;;;;5114283;28;20638;-72
2022/05/11 04:49:19;;;;;;;0.40;0.40;;;15.30;99.90;14.80;101049.00;;;;5114316;28;20173;-72
2022/05/11 04:51:57;;;;;;;0.73;0.73;;;15.30;99.90;14.90;101055.00;;;;5113246;28;20199;-73
2022/05/11 04:54:23;;;;;;;0.20;0.20;;;15.30;99.90;15.00;101053.00;;;;5096411;28;20194;-73
2022/05/11 04:56:49;;;;;;;0.20;0.20;;;15.30;99.90;15.30;101066.00;;;;5096256;28;20180;-73
2022/05/11 04:59:15;;;;;;;0.30;0.30;;;15.60;99.90;14.90;101068.00;;;;5114194;28;20215;-73
2022/05/11 05:01:41;;;;;;;0.67;0.60;;;15.50;99.90;15.30;101059.00;;;;5113136;28;20188;-73
2022/05/11 05:04:10;;;;;;;0.50;0.50;;;15.60;99.90;15.40;101071.00;;;;5096237;28;20546;-73
2022/05/11 05:06:36;;;;;;;0.20;0.20;;;15.60;99.90;15.20;101069.00;;;;5096063;28;20206;-73
2022/05/11 05:09:28;;;;;;;1.00;0.73;;;15.50;99.90;15.40;101068.00;;;;5096965;28;20187;-73
2022/05/11 05:11:53;;;;;;;0.40;0.40;;;15.70;99.90;14.80;101075.00;;;;5096342;28;20238;-73
2022/05/11 05:14:19;;;;;;;0.20;0.20;;;15.40;99.90;15.00;101037.00;;;;5113824;28;20220;-73
2022/05/11 05:16:45;;;;;;;1.67;0.77;;;15.30;99.90;14.90;101071.00;;;;5113549;28;20576;-73
2022/05/11 05:19:11;;;;;;;1.83;0.43;;;15.30;99.90;15.20;101069.00;;;;5114957;28;20175;-73
2022/05/11 05:21:37;;;;;;;1.33;1.03;;;15.50;99.90;15.20;101054.00;;;;5095788;28;20231;-72
2022/05/11 05:24:04;;;;;;;0.30;0.30;;;15.50;99.90;15.30;101080.00;;;;5114820;28;20243;-73
2022/05/11 05:26:30;;;;;;;0.20;0.20;;;15.60;99.90;15.20;101080.00;;;;5113160;28;20226;-72
2022/05/11 05:31:43;;;;;;;0.20;0.20;;;15.50;99.90;15.30;101081.00;;;;5113205;28;20234;-72
2022/05/11 05:34:09;;;;;;;0.47;0.40;;;15.70;99.90;15.70;101091.00;;;;5096585;28;20186;-72
2022/05/11 05:36:39;;;;;;;2.73;1.30;;;15.90;99.90;15.90;101105.00;;;;5096536;28;20195;-72
2022/05/11 05:39:06;;;;;;;0.53;0.53;;;16.00;99.90;14.90;101094.00;;;;5097084;28;20181;-73
2022/05/11 05:41:33;;;;;;;3.30;0.73;;;15.70;99.90;14.90;101108.00;;;;5094925;28;20641;-72
2022/05/11 05:43:59;;;;;;;7.93;1.43;;;15.50;99.90;15.70;101117.00;;;;5112559;28;20539;-73
2022/05/11 05:46:25;;;;;;;2.73;0.40;;;15.80;99.90;15.00;101115.00;;;;5112715;28;20176;-72
2022/05/11 05:52:26;;;;;;;0.73;0.50;;;15.40;99.90;14.90;101120.00;;;;5111993;28;20667;-73
2022/05/11 05:54:56;;;;;;;1.23;0.77;;;15.40;99.90;15.00;101124.00;;;;5113113;28;20203;-73
2022/05/11 05:58:03;;;;;;;0.60;0.60;;;15.40;99.90;15.80;101142.00;;;;5096050;28;20615;-73
2022/05/11 06:00:32;;;;;;;0.50;0.50;;;15.90;99.90;16.20;101153.00;;;;5098426;28;20185;-73
2022/05/11 06:03:01;;;;;;;0.20;0.20;;;16.20;99.90;15.30;101152.00;;;;5111917;28;20188;-74
2022/05/11 06:05:28;;;;;;;0.30;0.30;;;15.80;99.90;15.70;101130.00;;;;5112471;28;20180;-75
2022/05/11 06:07:56;;;;;;;0.20;0.20;;;15.80;99.90;16.30;101159.00;;;;5112087;28;20177;-74
2022/05/11 06:10:24;;;;;;;0.30;0.30;;;16.10;99.90;16.00;101142.00;;;;5095879;28;20176;-75
2022/05/11 06:12:50;;;;;;;0.30;0.30;;;16.20;99.90;16.10;101157.00;;;;5112734;28;20203;-74
2022/05/11 06:15:16;;;;;;;0.20;0.20;;;16.10;99.90;15.80;101164.00;;;;5112565;28;20181;-73
2022/05/11 06:17:42;;;;;;;1.20;0.40;;;15.90;99.90;15.80;101170.00;;;;5112351;28;20178;-74
2022/05/11 06:20:12;;;;;;;0.97;0.30;;;16.10;99.90;16.10;101154.00;;;;5112236;28;20231;-73
2022/05/11 06:23:20;;;;;;;1.57;0.73;;;16.20;99.90;16.20;101146.00;;;;5112197;28;20186;-75
2022/05/11 06:25:49;;;;;;;0.10;0.10;;;16.30;99.90;16.20;101177.00;;;;5112133;28;20175;-76
2022/05/11 06:28:16;;;;;;;0.20;0.20;;;16.40;99.90;15.70;101146.00;;;;5111762;28;20189;-75
2022/05/11 06:30:42;;;;;;;0.20;0.20;;;16.30;99.90;16.10;101175.00;;;;5112337;28;20575;-74
2022/05/11 06:33:08;;;;;;;0.10;0.10;;;16.10;99.90;15.80;101176.00;;;;5112322;28;20216;-75
2022/05/11 06:35:33;;;;;;;0.20;0.20;;;16.10;99.90;15.90;101178.00;;;;5111055;28;20199;-73
2022/05/11 06:38:07;;;;;;;7.00;0.60;;;16.10;99.90;16.50;101150.00;;;;5113401;28;20171;-73
2022/05/11 06:40:34;;;;;;;0.20;0.20;;;16.30;99.90;16.50;101194.00;;;;5095456;28;20178;-73
2022/05/11 06:43:03;;;;;;;0.20;0.20;;;16.60;99.90;17.10;101211.00;;;;5111289;28;20219;-73
2022/05/11 06:45:31;;;;;;;0.20;0.20;;;16.90;99.90;16.00;101192.00;;;;5112289;28;20183;-72
2022/05/11 06:47:58;;;;;;;0.20;0.20;;;16.50;99.90;16.30;101194.00;;;;5112167;28;20200;-72
2022/05/11 06:50:26;;;;;;;0.50;0.50;;;16.40;99.90;16.10;101193.00;;;;5112575;28;20212;-73
2022/05/11 06:52:59;;;;;;;0.30;0.30;;;16.40;99.90;16.40;101189.00;;;;5112552;28;20198;-74
2022/05/11 06:59:20;;;;;;;0.10;0.10;;;17.20;99.90;19.70;101217.00;;;;5116167;28;20703;-70
2022/05/11 07:01:18;;;;;;;4.18;1.00;;;18.90;99.90;19.00;101216.00;;;;5115035;28;20195;-73
2022/05/11 07:03:49;;;;;;;0.20;0.20;;;19.10;99.90;19.50;101226.00;;;;5116184;28;20264;-72
2022/05/11 07:06:15;;;;;;;0.20;0.20;;;19.40;99.90;18.00;101220.00;;;;5116305;28;20279;-73
2022/05/11 07:08:44;;;;;;;0.30;0.30;;;18.60;99.90;18.50;101239.00;;;;5116485;28;20649;-74
2022/05/11 07:13:57;;;;;;;2.33;0.98;;;17.80;99.90;18.80;101217.00;;;;5096910;28;20227;-72
2022/05/11 07:16:24;;;;;;;0.70;0.70;;;18.50;99.90;17.30;101198.00;;;;5089168;28;20196;-72
2022/05/11 07:18:50;;;;;;;0.82;0.80;;;18.00;99.90;18.10;101213.00;;;;5095736;28;20191;-72
2022/05/11 07:21:16;;;;;;;1.02;0.50;;;18.10;99.90;19.40;101228.00;;;;5082213;28;20186;-72
2022/05/11 07:23:41;;;;;;;0.75;0.70;;;18.80;99.90;19.10;101235.00;;;;5102590;28;20249;-72
2022/05/11 07:26:07;;;;;;;0.43;0.40;;;19.30;99.90;17.70;101224.00;;;;5095519;28;20184;-72
2022/05/11 07:28:33;;;;;;;0.35;0.35;;;18.40;99.90;17.60;101205.00;;;;5077737;28;20632;-73
2022/05/11 07:31:02;;;;;;;0.30;0.30;;;17.90;99.90;17.40;101212.00;;;;5107932;28;20214;-71
2022/05/11 07:33:28;;;;;;;0.30;0.30;;;17.90;99.90;18.50;101219.00;;;;5095246;28;20344;-72
2022/05/11 07:35:59;;;;;;;0.43;0.40;;;18.20;99.90;19.30;101191.00;;;;5094465;28;20217;-72
2022/05/11 07:38:30;;;;;;;0.65;0.32;;;18.80;99.90;18.70;101170.00;;;;5114346;28;20192;-71
2022/05/11 07:40:59;;;;;;;7.72;1.40;;;18.90;99.90;18.40;101204.00;;;;5105679;28;20181;-71
2022/05/11 07:43:33;;;;;;;0.20;0.20;;;18.50;99.90;19.00;101217.00;;;;5097856;28;20194;-72
2022/05/11 07:46:02;;;;;;;0.20;0.20;;;18.90;99.90;19.40;101187.00;;;;5116405;28;20195;-73
2022/05/11 07:48:28;;;;;;;0.85;0.85;;;19.30;99.90;19.90;101232.00;;;;5116624;28;20187;-76
2022/05/11 07:50:57;;;;;;;1.45;0.65;;;20.20;99.90;20.20;101234.00;;;;5115306;28;20203;-73
2022/05/11 07:53:29;;;;;;;0.17;0.17;;;20.20;99.90;18.60;101192.00;;;;5116490;28;20234;-76
2022/05/11 08:01:31;;;;;;;5.75;1.58;;;18.90;99.90;18.80;101208.00;;;;5115109;28;20207;-79
2022/05/11 08:03:57;;;;;;;0.10;0.10;;;19.00;99.90;19.30;101210.00;;;;5096486;28;20188;-81
2022/05/11 08:06:31;;;;;;;0.55;0.55;;;19.10;99.90;20.30;101173.00;;;;5114409;28;20188;-80
2022/05/11 08:08:56;;;;;;;0.52;0.52;;;20.10;99.90;20.60;101219.00;;;;5114501;28;20172;-78
2022/05/11 08:11:22;;;;;;;3.15;0.80;;;20.50;99.90;18.70;101204.00;;;;5114957;28;20200;-77
2022/05/11 08:13:48;;;;;;;0.20;0.20;;;19.30;99.90;19.70;101175.00;;;;5097266;28;20182;-77
2022/05/11 08:16:19;;;;;;;0.20;0.20;;;19.90;99.90;19.00;101191.00;;;;5114235;28;20172;-77
2022/05/11 08:18:46;;;;;;;0.70;0.70;;;19.30;99.90;19.90;101193.00;;;;5115762;28;20184;-77
2022/05/11 08:21:15;;;;;;;0.30;0.30;;;20.10;99.90;19.60;101202.00;;;;5097207;28;20233;-76
2022/05/11 08:23:44;;;;;;;2.78;0.70;;;19.80;99.90;19.90;101202.00;;;;5098062;28;20176;-76
2022/05/11 08:26:10;;;;;;;4.10;1.20;;;19.90;99.90;20.00;101208.00;;;;5115634;28;20177;-76
2022/05/11 08:28:39;;;;;;;0.20;0.20;;;19.90;99.90;19.20;101196.00;;;;5114434;28;20206;-76
2022/05/11 08:34:07;;;;;;;0.10;0.10;;;18.90;99.90;19.00;101144.00;;;;5114779;28;20244;-77
2022/05/11 08:36:36;;;;;;;0.10;0.10;;;18.80;99.90;19.00;101174.00;;;;5116306;28;20175;-78
2022/05/11 08:39:05;;;;;;;0.10;0.10;;;18.90;99.90;20.90;101206.00;;;;5114613;28;20177;-78
2022/05/11 08:41:49;;;;;;;0.10;0.10;;;19.90;99.90;20.10;101164.00;;;;5115359;28;20635;-79
2022/05/11 08:44:19;;;;;;;0.20;0.20;;;20.10;99.90;19.20;101198.00;;;;5114727;28;20263;-78
2022/05/11 08:46:47;;;;;;;0.43;0.43;;;19.70;99.90;18.70;101151.00;;;;5115978;28;20188;-77
2022/05/11 08:49:48;;;;;;;0.40;0.40;;;19.20;99.90;18.80;101165.00;;;;5115744;28;20176;-77
2022/05/11 08:52:40;;;;;;;0.20;0.20;;;19.00;99.90;18.60;101161.00;;;;5114358;28;20245;-77
2022/05/11 08:55:16;;;;;;;1.87;1.20;;;18.90;99.90;18.60;101182.00;;;;5114114;28;20547;-77
2022/05/11 08:57:48;;;;;;;0.20;0.20;;;18.90;99.90;18.70;101169.00;;;;5096856;28;20189;-77
2022/05/11 09:00:18;;;;;;;0.43;0.43;;;18.90;99.90;19.80;101194.00;;;;5113996;28;20176;-75
2022/05/11 09:02:52;;;;;;;0.10;0.10;;;19.40;99.90;19.20;101174.00;;;;5096800;28;20640;-76
2022/05/11 09:05:23;;;;;;;2.05;0.40;;;19.40;99.90;19.30;101185.00;;;;5096753;28;20186;-75
2022/05/11 09:07:53;;;;;;;0.30;0.30;;;19.70;99.90;18.70;101167.00;;;;5113912;28;20176;-76
2022/05/11 09:10:28;;;;;;;0.40;0.40;;;19.00;99.90;20.70;101173.00;;;;5113778;28;20180;-77
2022/05/11 09:13:09;;;;;;;4.75;0.82;;;19.90;99.90;19.60;101170.00;;;;5096382;28;20224;-76
2022/05/11 09:15:57;;;;;;;0.80;0.80;;;19.60;99.90;20.20;101172.00;;;;5114529;28;20176;-76
2022/05/11 09:18:43;;;;;;;3.60;0.82;;;20.00;99.90;21.30;101152.00;;;;5114011;28;20176;-80
2022/05/11 09:21:32;;;;;;;0.85;0.85;;;20.80;99.90;21.20;101184.00;;;;5113815;28;20229;-78
2022/05/11 09:24:08;;;;;;;0.47;0.47;;;21.10;99.90;21.80;101181.00;;;;5096858;28;20183;-78
2022/05/11 09:26:41;;;;;;;0.40;0.38;;;21.20;99.90;19.80;101177.00;;;;5113400;28;20180;-80
2022/05/11 09:29:22;;;;;;;2.95;0.30;;;20.90;99.90;19.90;101160.00;;;;5113471;28;20179;-79
2022/05/11 09:31:55;;;;;;;2.35;1.23;;;20.10;99.90;20.40;101164.00;;;;5113219;28;20208;-78
2022/05/11 09:34:35;;;;;;;8.30;0.50;;;20.30;99.90;20.30;101171.00;;;;5113932;28;20622;-79
2022/05/11 09:37:26;;;;;;;2.13;0.50;;;20.50;99.90;20.80;101167.00;;;;5113354;28;20173;-78
2022/05/11 09:40:05;;;;;;;0.13;0.13;;;20.70;99.90;22.20;101177.00;;;;5096198;28;20526;-76
2022/05/11 09:42:34;;;;;;;0.40;0.40;;;21.50;99.90;22.00;101173.00;;;;5096093;28;20183;-76
2022/05/11 09:45:04;;;;;;;0.60;0.60;;;21.70;99.90;20.40;101177.00;;;;5096245;28;20200;-76
2022/05/11 09:47:35;;;;;;;0.88;0.73;;;20.90;99.90;21.00;101174.00;;;;5096195;28;20184;-76
2022/05/11 09:50:16;;;;;;;0.10;0.10;;;20.90;99.90;21.80;101179.00;;;;5113251;28;20519;-80
2022/05/11 09:52:48;;;;;;;6.05;1.17;;;21.30;99.90;20.40;101171.00;;;;5112887;28;20263;-77
2022/05/11 09:55:29;;;;;;;0.30;0.30;;;21.00;99.90;20.30;101152.00;;;;5095828;28;20172;-79
2022/05/11 09:58:01;;;;;;;0.35;0.35;;;20.20;99.90;21.80;101167.00;;;;5113165;28;20277;-78
2022/05/11 10:00:40;;;;;;;0.38;0.38;;;21.20;99.90;22.60;101179.00;;;;5113174;28;20172;-79
2022/05/11 10:03:29;;;;;;;0.50;0.50;;;21.90;99.90;21.70;101165.00;;;;5095862;28;20646;-79
2022/05/11 10:05:58;;;;;;;0.17;0.17;;;22.00;99.90;23.00;101182.00;;;;5109652;28;20211;-79
2022/05/11 10:08:32;;;;;;;0.10;0.10;;;22.50;99.90;23.40;101182.00;;;;5093492;28;20183;-82
2022/05/11 10:11:21;;;;;;;6.50;1.05;;;23.30;99.90;21.90;101183.00;;;;5092066;28;20191;-79
2022/05/11 10:33:58;;;;;;;3.60;0.65;;;23.80;99.90;22.30;101171.00;;;;5046355;27;1335356;-78
2022/05/11 10:36:54;;;;;;;0.22;0.22;;;23.30;99.90;21.30;101158.00;;;;5070208;28;20207;-77
2022/05/11 10:39:52;;;;;;;1.33;0.98;;;21.60;99.90;21.60;101158.00;;;;5048768;28;20197;-78
2022/05/11 10:42:40;;;;;;;1.50;0.90;;;22.20;99.90;20.70;101143.00;;;;5032386;28;20219;-78
2022/05/11 10:45:28;;;;;;;3.63;1.40;;;21.20;99.90;21.10;101113.00;;;;5036878;28;20251;-78
2022/05/11 10:48:49;;;;;;;1.25;0.55;;;21.10;99.90;21.20;101129.00;;;;5052333;28;20177;-79
2022/05/11 10:51:44;;;;;;;4.38;1.02;;;21.20;99.90;22.50;101156.00;;;;5051967;28;20221;-79
2022/05/11 10:54:59;;;;;;;0.85;0.73;;;22.50;99.90;22.40;101148.00;;;;5054099;28;20193;-79
2022/05/11 10:57:39;;;;;;;3.90;1.45;;;22.40;99.90;21.20;101147.00;;;;5067535;28;20177;-79
2022/05/11 11:00:26;;;;;;;0.73;0.73;;;21.70;99.90;22.40;101147.00;;;;5052674;28;20190;-79
2022/05/11 11:03:20;;;;;;;0.45;0.45;;;22.10;99.90;22.50;101149.00;;;;5026567;28;20687;-78
2022/05/11 11:09:11;;;;;;;2.20;0.52;;;22.20;99.90;21.90;101143.00;;;;5062641;28;20246;-78
2022/05/11 11:11:55;;;;;;;2.65;0.52;;;21.80;99.90;22.80;101152.00;;;;5035340;28;20668;-79
2022/05/11 11:14:31;;;;;;;0.77;0.70;;;22.40;99.90;22.60;101152.00;;;;5052496;28;20191;-79
2022/05/11 11:16:58;;;;;;;0.55;0.55;;;22.70;99.90;23.60;101137.00;;;;5035436;28;20197;-80
2022/05/11 11:19:25;;;;;;;0.73;0.73;;;23.40;99.90;21.70;101133.00;;;;5052002;28;20196;-81
2022/05/11 11:21:51;;;;;;;2.17;1.30;;;22.70;99.90;22.10;101136.00;;;;5035720;28;20200;-79
2022/05/11 11:24:25;;;;;;;0.98;0.95;;;22.40;99.90;22.90;101134.00;;;;5036844;28;20224;-80
2022/05/11 11:27:06;;;;;;;0.20;0.20;;;22.70;99.90;22.50;101145.00;;;;5015437;28;20214;-81
2022/05/11 11:29:34;;;;;;;0.10;0.10;;;22.50;99.90;24.00;101112.00;;;;5049501;28;20592;-81
2022/05/11 11:32:03;;;;;;;0.20;0.20;;;23.50;99.90;25.40;101150.00;;;;5015132;28;20217;-81
2022/05/11 11:34:35;;;;;;;5.10;1.48;;;24.50;99.90;25.50;101102.00;;;;5051741;28;20198;-79
2022/05/11 11:37:27;;;;;;;0.25;0.25;;;25.00;99.90;25.00;101105.00;;;;5051521;28;20273;-79
2022/05/11 11:39:57;;;;;;;1.13;1.00;;;24.90;99.90;22.10;101146.00;;;;5040784;28;20182;-78
2022/05/11 11:42:39;;;;;;;0.10;0.10;;;23.30;99.90;22.10;101109.00;;;;5050508;28;20276;-79
2022/05/11 11:45:30;;;;;;;0.15;0.15;;;22.20;99.90;23.00;101118.00;;;;5037929;28;20177;-80
2022/05/11 11:48:17;;;;;;;1.45;0.47;;;22.60;99.90;24.00;101099.00;;;;4997664;28;20241;-73
2022/05/11 11:50:59;;;;;;;0.17;0.17;;;23.60;99.90;23.20;101113.00;;;;5055462;28;20614;-74
2022/05/11 11:54:07;;;;;;;1.45;0.73;;;23.20;99.90;24.00;101120.00;;;;5037609;28;20323;-73
2022/05/11 11:56:38;;;;;;;0.10;0.10;;;23.40;99.90;22.70;101113.00;;;;5036402;28;20190;-72
2022/05/11 11:59:12;;;;;;;0.47;0.40;;;22.90;99.90;22.80;101111.00;;;;5037962;28;20171;-72
2022/05/11 12:01:49;;;;;;;0.25;0.25;;;22.70;99.90;24.20;101107.00;;;;5025747;28;20195;-72